sensor_id;sensor_type;location;lat;lon;timestamp;P1;durP1;ratioP1;P2;durP2;ratioP2
35056;SDS011;21241;51.828;19.574;2023-04-25T00:01:55;13.50;;;12.60;;
35056;SDS011;21241;51.828;19.574;2023-04-25T00:04:23;13.10;;;12.20;;
35056;SDS011;21241;51.828;19.574;2023-04-25T00:06:53;12.00;;;11.20;;
35056;SDS011;21241;51.828;19.574;2023-04-25T00:09:21;12.80;;;11.90;;
35056;SDS011;21241;51.828;19.574;2023-04-25T00:11:49;12.40;;;11.40;;
35056;SDS011;21241;51.828;19.574;2023-04-25T00:14:17;11.80;;;11.00;;
35056;SDS011;21241;51.828;19.574;2023-04-25T00:16:45;11.80;;;10.90;;
35056;SDS011;21241;51.828;19.574;2023-04-25T00:19:12;11.40;;;10.60;;
35056;SDS011;21241;51.828;19.574;2023-04-25T00:21:41;11.00;;;10.30;;
35056;SDS011;21241;51.828;19.574;2023-04-25T00:24:09;10.90;;;10.20;;
35056;SDS011;21241;51.828;19.574;2023-04-25T00:26:36;11.10;;;10.30;;
35056;SDS011;21241;51.828;19.574;2023-04-25T00:29:04;11.00;;;10.20;;
35056;SDS011;21241;51.828;19.574;2023-04-25T00:31:31;11.60;;;10.70;;
35056;SDS011;21241;51.828;19.574;2023-04-25T00:33:59;9.20;;;8.50;;
35056;SDS011;21241;51.828;19.574;2023-04-25T00:36:27;9.20;;;8.60;;
35056;SDS011;21241;51.828;19.574;2023-04-25T00:38:55;9.40;;;8.80;;
35056;SDS011;21241;51.828;19.574;2023-04-25T00:41:23;9.10;;;8.50;;
35056;SDS011;21241;51.828;19.574;2023-04-25T00:43:53;9.80;;;9.10;;
35056;SDS011;21241;51.828;19.574;2023-04-25T00:46:22;9.50;;;8.80;;
35056;SDS011;21241;51.828;19.574;2023-04-25T00:48:50;8.00;;;7.40;;
35056;SDS011;21241;51.828;19.574;2023-04-25T00:51:19;9.00;;;8.40;;
35056;SDS011;21241;51.828;19.574;2023-04-25T00:53:48;7.90;;;7.40;;
35056;SDS011;21241;51.828;19.574;2023-04-25T00:56:17;9.00;;;8.40;;
35056;SDS011;21241;51.828;19.574;2023-04-25T00:58:45;8.70;;;8.10;;
35056;SDS011;21241;51.828;19.574;2023-04-25T01:01:13;9.00;;;8.30;;
35056;SDS011;21241;51.828;19.574;2023-04-25T01:03:41;8.80;;;8.20;;
35056;SDS011;21241;51.828;19.574;2023-04-25T01:06:10;8.40;;;7.70;;
35056;SDS011;21241;51.828;19.574;2023-04-25T01:08:38;9.60;;;9.00;;
35056;SDS011;21241;51.828;19.574;2023-04-25T01:11:07;9.70;;;9.00;;
35056;SDS011;21241;51.828;19.574;2023-04-25T01:13:34;9.70;;;9.00;;
35056;SDS011;21241;51.828;19.574;2023-04-25T01:16:02;9.70;;;9.00;;
35056;SDS011;21241;51.828;19.574;2023-04-25T01:18:32;10.40;;;9.70;;
35056;SDS011;21241;51.828;19.574;2023-04-25T01:21:02;9.80;;;9.20;;
35056;SDS011;21241;51.828;19.574;2023-04-25T01:23:42;10.70;;;9.90;;
35056;SDS011;21241;51.828;19.574;2023-04-25T01:26:10;10.70;;;9.90;;
35056;SDS011;21241;51.828;19.574;2023-04-25T01:28:39;11.30;;;10.50;;
35056;SDS011;21241;51.828;19.574;2023-04-25T01:31:11;11.30;;;10.50;;
35056;SDS011;21241;51.828;19.574;2023-04-25T01:33:39;10.90;;;10.00;;
35056;SDS011;21241;51.828;19.574;2023-04-25T01:36:07;12.40;;;11.50;;
35056;SDS011;21241;51.828;19.574;2023-04-25T01:38:35;13.50;;;12.50;;
35056;SDS011;21241;51.828;19.574;2023-04-25T01:41:03;12.20;;;11.40;;
35056;SDS011;21241;51.828;19.574;2023-04-25T01:43:31;13.40;;;12.40;;
35056;SDS011;21241;51.828;19.574;2023-04-25T01:45:58;13.30;;;12.30;;
35056;SDS011;21241;51.828;19.574;2023-04-25T01:48:27;13.00;;;12.10;;
35056;SDS011;21241;51.828;19.574;2023-04-25T01:50:55;13.60;;;12.60;;
35056;SDS011;21241;51.828;19.574;2023-04-25T01:53:23;13.50;;;12.60;;
35056;SDS011;21241;51.828;19.574;2023-04-25T01:55:51;13.50;;;12.70;;
35056;SDS011;21241;51.828;19.574;2023-04-25T01:58:21;13.50;;;12.50;;
35056;SDS011;21241;51.828;19.574;2023-04-25T02:00:58;13.10;;;12.20;;
35056;SDS011;21241;51.828;19.574;2023-04-25T02:03:27;14.00;;;13.10;;
35056;SDS011;21241;51.828;19.574;2023-04-25T02:05:56;13.20;;;12.20;;
35056;SDS011;21241;51.828;19.574;2023-04-25T02:08:25;13.50;;;12.60;;
35056;SDS011;21241;51.828;19.574;2023-04-25T02:10:55;13.10;;;12.30;;
35056;SDS011;21241;51.828;19.574;2023-04-25T02:13:24;13.80;;;12.80;;
35056;SDS011;21241;51.828;19.574;2023-04-25T02:16:01;14.10;;;13.20;;
35056;SDS011;21241;51.828;19.574;2023-04-25T02:18:30;14.00;;;13.00;;
35056;SDS011;21241;51.828;19.574;2023-04-25T02:20:59;14.60;;;13.60;;
35056;SDS011;21241;51.828;19.574;2023-04-25T02:23:28;14.90;;;14.00;;
35056;SDS011;21241;51.828;19.574;2023-04-25T02:25:56;15.00;;;14.00;;
35056;SDS011;21241;51.828;19.574;2023-04-25T02:28:24;16.30;;;15.10;;
35056;SDS011;21241;51.828;19.574;2023-04-25T02:30:53;14.90;;;14.00;;
35056;SDS011;21241;51.828;19.574;2023-04-25T02:33:21;14.70;;;13.70;;
35056;SDS011;21241;51.828;19.574;2023-04-25T02:35:49;15.60;;;14.50;;
35056;SDS011;21241;51.828;19.574;2023-04-25T02:38:16;15.70;;;14.70;;
35056;SDS011;21241;51.828;19.574;2023-04-25T02:40:44;16.00;;;14.80;;
35056;SDS011;21241;51.828;19.574;2023-04-25T02:43:12;16.20;;;15.20;;
35056;SDS011;21241;51.828;19.574;2023-04-25T02:45:39;14.80;;;13.70;;
35056;SDS011;21241;51.828;19.574;2023-04-25T02:48:07;14.90;;;13.80;;
35056;SDS011;21241;51.828;19.574;2023-04-25T02:50:35;14.70;;;13.70;;
35056;SDS011;21241;51.828;19.574;2023-04-25T02:53:03;13.40;;;12.50;;
35056;SDS011;21241;51.828;19.574;2023-04-25T02:55:36;13.70;;;12.60;;
35056;SDS011;21241;51.828;19.574;2023-04-25T02:58:04;12.70;;;11.80;;
35056;SDS011;21241;51.828;19.574;2023-04-25T03:00:45;12.00;;;11.20;;
35056;SDS011;21241;51.828;19.574;2023-04-25T03:03:13;12.20;;;11.30;;
35056;SDS011;21241;51.828;19.574;2023-04-25T03:05:41;11.80;;;11.00;;
35056;SDS011;21241;51.828;19.574;2023-04-25T03:08:09;11.00;;;10.30;;
35056;SDS011;21241;51.828;19.574;2023-04-25T03:10:38;11.20;;;10.40;;
35056;SDS011;21241;51.828;19.574;2023-04-25T03:13:08;10.40;;;9.60;;
35056;SDS011;21241;51.828;19.574;2023-04-25T03:15:36;10.30;;;9.60;;
35056;SDS011;21241;51.828;19.574;2023-04-25T03:18:04;9.50;;;8.80;;
35056;SDS011;21241;51.828;19.574;2023-04-25T03:20:31;8.20;;;7.70;;
35056;SDS011;21241;51.828;19.574;2023-04-25T03:22:59;8.00;;;7.40;;
35056;SDS011;21241;51.828;19.574;2023-04-25T03:25:27;8.00;;;7.50;;
35056;SDS011;21241;51.828;19.574;2023-04-25T03:27:55;7.60;;;7.10;;
35056;SDS011;21241;51.828;19.574;2023-04-25T03:30:23;7.70;;;7.10;;
35056;SDS011;21241;51.828;19.574;2023-04-25T03:32:51;7.90;;;7.30;;
35056;SDS011;21241;51.828;19.574;2023-04-25T03:35:19;7.20;;;6.70;;
35056;SDS011;21241;51.828;19.574;2023-04-25T03:37:46;7.50;;;6.90;;
35056;SDS011;21241;51.828;19.574;2023-04-25T03:40:18;7.30;;;6.80;;
35056;SDS011;21241;51.828;19.574;2023-04-25T03:43:06;7.70;;;7.20;;
35056;SDS011;21241;51.828;19.574;2023-04-25T03:45:35;8.20;;;7.50;;
35056;SDS011;21241;51.828;19.574;2023-04-25T03:48:03;8.80;;;8.10;;
35056;SDS011;21241;51.828;19.574;2023-04-25T03:50:31;8.40;;;7.80;;
35056;SDS011;21241;51.828;19.574;2023-04-25T03:52:59;9.30;;;8.60;;
35056;SDS011;21241;51.828;19.574;2023-04-25T03:55:29;9.50;;;8.80;;
35056;SDS011;21241;51.828;19.574;2023-04-25T03:57:57;9.70;;;9.00;;
35056;SDS011;21241;51.828;19.574;2023-04-25T04:00:26;9.40;;;8.70;;
35056;SDS011;21241;51.828;19.574;2023-04-25T04:02:53;7.80;;;7.30;;
35056;SDS011;21241;51.828;19.574;2023-04-25T04:05:22;8.40;;;7.70;;
35056;SDS011;21241;51.828;19.574;2023-04-25T04:07:54;6.80;;;6.40;;
35056;SDS011;21241;51.828;19.574;2023-04-25T04:10:23;6.90;;;6.40;;
35056;SDS011;21241;51.828;19.574;2023-04-25T04:12:50;6.50;;;6.10;;
35056;SDS011;21241;51.828;19.574;2023-04-25T04:15:18;7.30;;;6.80;;
35056;SDS011;21241;51.828;19.574;2023-04-25T04:17:47;7.40;;;6.90;;
35056;SDS011;21241;51.828;19.574;2023-04-25T04:20:15;6.70;;;6.30;;
35056;SDS011;21241;51.828;19.574;2023-04-25T04:22:43;6.50;;;6.10;;
35056;SDS011;21241;51.828;19.574;2023-04-25T04:25:13;5.80;;;5.40;;
35056;SDS011;21241;51.828;19.574;2023-04-25T04:28:02;6.80;;;6.30;;
35056;SDS011;21241;51.828;19.574;2023-04-25T04:30:40;6.20;;;5.80;;
35056;SDS011;21241;51.828;19.574;2023-04-25T04:33:08;7.00;;;6.60;;
35056;SDS011;21241;51.828;19.574;2023-04-25T04:35:37;6.90;;;6.30;;
35056;SDS011;21241;51.828;19.574;2023-04-25T04:38:05;5.70;;;5.30;;
35056;SDS011;21241;51.828;19.574;2023-04-25T04:40:34;5.70;;;5.40;;
35056;SDS011;21241;51.828;19.574;2023-04-25T04:43:13;4.90;;;4.50;;
35056;SDS011;21241;51.828;19.574;2023-04-25T04:46:01;4.90;;;4.50;;
35056;SDS011;21241;51.828;19.574;2023-04-25T04:48:39;4.90;;;4.60;;
35056;SDS011;21241;51.828;19.574;2023-04-25T04:51:33;4.60;;;4.30;;
35056;SDS011;21241;51.828;19.574;2023-04-25T04:54:09;4.50;;;4.10;;
35056;SDS011;21241;51.828;19.574;2023-04-25T04:57:10;4.80;;;4.50;;
35056;SDS011;21241;51.828;19.574;2023-04-25T04:59:51;4.30;;;4.00;;
35056;SDS011;21241;51.828;19.574;2023-04-25T05:02:38;4.60;;;4.20;;
35056;SDS011;21241;51.828;19.574;2023-04-25T05:05:26;4.40;;;4.10;;
35056;SDS011;21241;51.828;19.574;2023-04-25T05:08:17;4.60;;;4.20;;
35056;SDS011;21241;51.828;19.574;2023-04-25T05:10:56;4.00;;;3.70;;
35056;SDS011;21241;51.828;19.574;2023-04-25T05:13:34;4.10;;;3.80;;
35056;SDS011;21241;51.828;19.574;2023-04-25T05:16:27;4.10;;;3.80;;
35056;SDS011;21241;51.828;19.574;2023-04-25T05:19:07;4.20;;;4.00;;
35056;SDS011;21241;51.828;19.574;2023-04-25T05:21:47;4.20;;;3.90;;
35056;SDS011;21241;51.828;19.574;2023-04-25T05:24:30;4.30;;;4.00;;
35056;SDS011;21241;51.828;19.574;2023-04-25T05:27:23;4.20;;;3.80;;
35056;SDS011;21241;51.828;19.574;2023-04-25T05:30:14;3.80;;;3.50;;
35056;SDS011;21241;51.828;19.574;2023-04-25T05:32:55;3.50;;;3.30;;
35056;SDS011;21241;51.828;19.574;2023-04-25T05:35:23;3.60;;;3.40;;
35056;SDS011;21241;51.828;19.574;2023-04-25T05:37:51;4.00;;;3.60;;
35056;SDS011;21241;51.828;19.574;2023-04-25T05:40:23;4.00;;;3.70;;
35056;SDS011;21241;51.828;19.574;2023-04-25T05:43:00;3.60;;;3.40;;
35056;SDS011;21241;51.828;19.574;2023-04-25T05:45:42;3.70;;;3.50;;
35056;SDS011;21241;51.828;19.574;2023-04-25T05:48:29;4.20;;;3.90;;
35056;SDS011;21241;51.828;19.574;2023-04-25T05:51:19;3.70;;;3.40;;
35056;SDS011;21241;51.828;19.574;2023-04-25T05:53:59;3.90;;;3.70;;
35056;SDS011;21241;51.828;19.574;2023-04-25T05:56:27;4.20;;;3.50;;
35056;SDS011;21241;51.828;19.574;2023-04-25T05:58:56;4.20;;;3.90;;
35056;SDS011;21241;51.828;19.574;2023-04-25T06:01:24;4.00;;;3.70;;
35056;SDS011;21241;51.828;19.574;2023-04-25T06:03:51;4.00;;;3.80;;
35056;SDS011;21241;51.828;19.574;2023-04-25T06:06:22;4.30;;;4.10;;
35056;SDS011;21241;51.828;19.574;2023-04-25T06:09:50;3.70;;;3.50;;
35056;SDS011;21241;51.828;19.574;2023-04-25T06:12:18;4.40;;;4.20;;
35056;SDS011;21241;51.828;19.574;2023-04-25T06:14:46;4.00;;;3.70;;
35056;SDS011;21241;51.828;19.574;2023-04-25T06:17:14;4.10;;;3.90;;
35056;SDS011;21241;51.828;19.574;2023-04-25T06:19:42;3.90;;;3.60;;
35056;SDS011;21241;51.828;19.574;2023-04-25T06:22:10;4.20;;;3.90;;
35056;SDS011;21241;51.828;19.574;2023-04-25T06:24:39;5.10;;;4.60;;
35056;SDS011;21241;51.828;19.574;2023-04-25T06:27:07;4.40;;;4.10;;
35056;SDS011;21241;51.828;19.574;2023-04-25T06:29:35;3.80;;;3.60;;
35056;SDS011;21241;51.828;19.574;2023-04-25T06:32:02;3.80;;;3.40;;
35056;SDS011;21241;51.828;19.574;2023-04-25T06:34:30;4.20;;;3.90;;
35056;SDS011;21241;51.828;19.574;2023-04-25T06:36:58;3.90;;;3.60;;
35056;SDS011;21241;51.828;19.574;2023-04-25T06:39:26;3.90;;;3.60;;
35056;SDS011;21241;51.828;19.574;2023-04-25T06:41:55;4.10;;;3.70;;
35056;SDS011;21241;51.828;19.574;2023-04-25T06:44:41;3.50;;;3.20;;
35056;SDS011;21241;51.828;19.574;2023-04-25T06:47:09;3.10;;;2.90;;
35056;SDS011;21241;51.828;19.574;2023-04-25T06:49:38;3.70;;;3.50;;
35056;SDS011;21241;51.828;19.574;2023-04-25T06:52:06;4.70;;;3.80;;
35056;SDS011;21241;51.828;19.574;2023-04-25T06:54:34;4.00;;;3.70;;
35056;SDS011;21241;51.828;19.574;2023-04-25T06:57:09;4.00;;;3.70;;
35056;SDS011;21241;51.828;19.574;2023-04-25T06:59:37;3.90;;;3.60;;
35056;SDS011;21241;51.828;19.574;2023-04-25T07:02:05;4.20;;;3.90;;
35056;SDS011;21241;51.828;19.574;2023-04-25T07:04:33;3.70;;;3.40;;
35056;SDS011;21241;51.828;19.574;2023-04-25T07:07:02;4.10;;;3.70;;
35056;SDS011;21241;51.828;19.574;2023-04-25T07:09:39;4.10;;;3.70;;
35056;SDS011;21241;51.828;19.574;2023-04-25T07:12:07;4.10;;;3.70;;
35056;SDS011;21241;51.828;19.574;2023-04-25T07:14:35;3.70;;;3.40;;
35056;SDS011;21241;51.828;19.574;2023-04-25T07:17:03;4.50;;;4.10;;
35056;SDS011;21241;51.828;19.574;2023-04-25T07:19:35;4.40;;;4.10;;
35056;SDS011;21241;51.828;19.574;2023-04-25T07:22:04;4.20;;;3.90;;
35056;SDS011;21241;51.828;19.574;2023-04-25T07:24:32;4.00;;;3.60;;
35056;SDS011;21241;51.828;19.574;2023-04-25T07:27:00;4.40;;;4.10;;
35056;SDS011;21241;51.828;19.574;2023-04-25T07:29:41;4.30;;;4.00;;
35056;SDS011;21241;51.828;19.574;2023-04-25T07:32:09;4.60;;;4.30;;
35056;SDS011;21241;51.828;19.574;2023-04-25T07:34:42;4.70;;;4.30;;
35056;SDS011;21241;51.828;19.574;2023-04-25T07:37:10;4.70;;;4.40;;
35056;SDS011;21241;51.828;19.574;2023-04-25T07:39:46;5.20;;;4.70;;
35056;SDS011;21241;51.828;19.574;2023-04-25T07:42:14;4.80;;;4.50;;
35056;SDS011;21241;51.828;19.574;2023-04-25T07:44:43;4.90;;;4.50;;
35056;SDS011;21241;51.828;19.574;2023-04-25T07:47:12;5.40;;;4.90;;
35056;SDS011;21241;51.828;19.574;2023-04-25T07:49:41;5.30;;;4.80;;
35056;SDS011;21241;51.828;19.574;2023-04-25T07:52:09;5.00;;;4.70;;
35056;SDS011;21241;51.828;19.574;2023-04-25T07:54:37;5.20;;;4.70;;
35056;SDS011;21241;51.828;19.574;2023-04-25T07:57:12;5.40;;;5.00;;
35056;SDS011;21241;51.828;19.574;2023-04-25T07:59:41;5.70;;;5.10;;
35056;SDS011;21241;51.828;19.574;2023-04-25T08:02:09;5.70;;;5.30;;
35056;SDS011;21241;51.828;19.574;2023-04-25T08:04:39;5.70;;;5.20;;
35056;SDS011;21241;51.828;19.574;2023-04-25T08:07:09;6.10;;;5.60;;
35056;SDS011;21241;51.828;19.574;2023-04-25T08:09:49;6.40;;;5.80;;
35056;SDS011;21241;51.828;19.574;2023-04-25T08:12:23;5.70;;;5.20;;
35056;SDS011;21241;51.828;19.574;2023-04-25T08:14:51;4.80;;;4.40;;
35056;SDS011;21241;51.828;19.574;2023-04-25T08:17:19;4.20;;;3.80;;
35056;SDS011;21241;51.828;19.574;2023-04-25T08:19:46;4.30;;;4.00;;
35056;SDS011;21241;51.828;19.574;2023-04-25T08:22:23;4.00;;;3.70;;
35056;SDS011;21241;51.828;19.574;2023-04-25T08:24:56;4.00;;;3.70;;
35056;SDS011;21241;51.828;19.574;2023-04-25T08:27:25;4.60;;;4.30;;
35056;SDS011;21241;51.828;19.574;2023-04-25T08:29:53;5.30;;;4.90;;
35056;SDS011;21241;51.828;19.574;2023-04-25T08:32:21;4.90;;;4.40;;
35056;SDS011;21241;51.828;19.574;2023-04-25T08:35:15;4.70;;;4.30;;
35056;SDS011;21241;51.828;19.574;2023-04-25T08:37:44;4.80;;;4.40;;
35056;SDS011;21241;51.828;19.574;2023-04-25T08:40:14;4.50;;;4.20;;
35056;SDS011;21241;51.828;19.574;2023-04-25T08:42:57;4.50;;;4.20;;
35056;SDS011;21241;51.828;19.574;2023-04-25T08:45:27;4.60;;;4.30;;
35056;SDS011;21241;51.828;19.574;2023-04-25T08:47:55;4.70;;;4.40;;
35056;SDS011;21241;51.828;19.574;2023-04-25T08:50:24;5.30;;;4.70;;
35056;SDS011;21241;51.828;19.574;2023-04-25T08:52:54;4.50;;;4.10;;
35056;SDS011;21241;51.828;19.574;2023-04-25T08:55:25;4.80;;;4.40;;
35056;SDS011;21241;51.828;19.574;2023-04-25T08:57:56;4.60;;;4.30;;
35056;SDS011;21241;51.828;19.574;2023-04-25T09:00:24;5.40;;;4.10;;
35056;SDS011;21241;51.828;19.574;2023-04-25T09:02:52;4.00;;;3.70;;
35056;SDS011;21241;51.828;19.574;2023-04-25T09:05:20;4.00;;;3.70;;
35056;SDS011;21241;51.828;19.574;2023-04-25T09:07:52;3.90;;;3.60;;
35056;SDS011;21241;51.828;19.574;2023-04-25T09:10:19;3.40;;;3.10;;
35056;SDS011;21241;51.828;19.574;2023-04-25T09:13:04;3.70;;;3.40;;
35056;SDS011;21241;51.828;19.574;2023-04-25T09:15:57;3.40;;;3.20;;
35056;SDS011;21241;51.828;19.574;2023-04-25T09:18:37;4.50;;;3.70;;
35056;SDS011;21241;51.828;19.574;2023-04-25T09:21:06;3.80;;;3.60;;
35056;SDS011;21241;51.828;19.574;2023-04-25T09:23:45;3.70;;;3.50;;
35056;SDS011;21241;51.828;19.574;2023-04-25T09:26:18;4.10;;;3.70;;
35056;SDS011;21241;51.828;19.574;2023-04-25T09:28:47;4.00;;;3.60;;
35056;SDS011;21241;51.828;19.574;2023-04-25T09:31:23;4.30;;;4.00;;
35056;SDS011;21241;51.828;19.574;2023-04-25T09:34:00;4.30;;;3.90;;
35056;SDS011;21241;51.828;19.574;2023-04-25T09:36:36;4.10;;;3.70;;
35056;SDS011;21241;51.828;19.574;2023-04-25T09:39:19;3.50;;;3.20;;
35056;SDS011;21241;51.828;19.574;2023-04-25T09:41:58;3.20;;;3.00;;
35056;SDS011;21241;51.828;19.574;2023-04-25T09:44:26;3.20;;;3.00;;
35056;SDS011;21241;51.828;19.574;2023-04-25T09:46:54;3.70;;;3.40;;
35056;SDS011;21241;51.828;19.574;2023-04-25T09:49:25;3.70;;;3.50;;
35056;SDS011;21241;51.828;19.574;2023-04-25T09:52:05;4.50;;;4.10;;
35056;SDS011;21241;51.828;19.574;2023-04-25T09:54:42;4.30;;;4.00;;
35056;SDS011;21241;51.828;19.574;2023-04-25T09:57:15;4.30;;;4.00;;
35056;SDS011;21241;51.828;19.574;2023-04-25T09:59:45;4.00;;;3.70;;
35056;SDS011;21241;51.828;19.574;2023-04-25T10:02:18;4.50;;;4.20;;
35056;SDS011;21241;51.828;19.574;2023-04-25T10:04:52;4.40;;;4.10;;
35056;SDS011;21241;51.828;19.574;2023-04-25T10:07:29;4.00;;;3.80;;
35056;SDS011;21241;51.828;19.574;2023-04-25T10:09:58;4.10;;;3.80;;
35056;SDS011;21241;51.828;19.574;2023-04-25T10:12:29;4.20;;;3.60;;
35056;SDS011;21241;51.828;19.574;2023-04-25T10:15:01;4.60;;;4.30;;
35056;SDS011;21241;51.828;19.574;2023-04-25T10:17:31;4.90;;;4.50;;
35056;SDS011;21241;51.828;19.574;2023-04-25T10:20:01;4.50;;;4.10;;
35056;SDS011;21241;51.828;19.574;2023-04-25T10:22:32;4.70;;;4.40;;
35056;SDS011;21241;51.828;19.574;2023-04-25T10:25:02;4.30;;;4.00;;
35056;SDS011;21241;51.828;19.574;2023-04-25T10:27:33;4.50;;;4.10;;
35056;SDS011;21241;51.828;19.574;2023-04-25T10:30:02;4.10;;;3.80;;
35056;SDS011;21241;51.828;19.574;2023-04-25T10:32:50;4.10;;;3.80;;
35056;SDS011;21241;51.828;19.574;2023-04-25T10:35:26;4.60;;;4.30;;
35056;SDS011;21241;51.828;19.574;2023-04-25T10:38:05;4.30;;;4.00;;
35056;SDS011;21241;51.828;19.574;2023-04-25T10:40:36;4.60;;;4.30;;
35056;SDS011;21241;51.828;19.574;2023-04-25T10:43:33;4.30;;;4.00;;
35056;SDS011;21241;51.828;19.574;2023-04-25T10:46:06;5.70;;;5.30;;
35056;SDS011;21241;51.828;19.574;2023-04-25T10:51:24;4.20;;;3.90;;
35056;SDS011;21241;51.828;19.574;2023-04-25T10:54:06;4.30;;;4.00;;
35056;SDS011;21241;51.828;19.574;2023-04-25T10:56:38;4.80;;;4.40;;
35056;SDS011;21241;51.828;19.574;2023-04-25T10:59:08;5.30;;;5.00;;
35056;SDS011;21241;51.828;19.574;2023-04-25T11:01:38;4.60;;;4.30;;
35056;SDS011;21241;51.828;19.574;2023-04-25T11:09:35;5.00;;;4.60;;
35056;SDS011;21241;51.828;19.574;2023-04-25T11:12:07;4.50;;;4.30;;
35056;SDS011;21241;51.828;19.574;2023-04-25T11:14:35;4.50;;;4.20;;
35056;SDS011;21241;51.828;19.574;2023-04-25T11:17:03;4.80;;;4.50;;
35056;SDS011;21241;51.828;19.574;2023-04-25T11:19:30;5.70;;;5.30;;
35056;SDS011;21241;51.828;19.574;2023-04-25T11:21:59;4.80;;;4.50;;
35056;SDS011;21241;51.828;19.574;2023-04-25T11:24:28;5.50;;;5.20;;
35056;SDS011;21241;51.828;19.574;2023-04-25T11:26:57;5.40;;;5.00;;
35056;SDS011;21241;51.828;19.574;2023-04-25T11:29:26;5.80;;;5.40;;
35056;SDS011;21241;51.828;19.574;2023-04-25T11:31:55;5.50;;;5.10;;
35056;SDS011;21241;51.828;19.574;2023-04-25T11:34:26;5.20;;;4.90;;
35056;SDS011;21241;51.828;19.574;2023-04-25T11:36:54;6.00;;;5.60;;
35056;SDS011;21241;51.828;19.574;2023-04-25T11:39:23;5.80;;;5.40;;
35056;SDS011;21241;51.828;19.574;2023-04-25T11:41:52;6.60;;;5.40;;
35056;SDS011;21241;51.828;19.574;2023-04-25T11:44:20;5.20;;;4.90;;
35056;SDS011;21241;51.828;19.574;2023-04-25T11:46:49;5.90;;;5.50;;
35056;SDS011;21241;51.828;19.574;2023-04-25T11:49:16;5.90;;;5.50;;
35056;SDS011;21241;51.828;19.574;2023-04-25T11:51:47;5.30;;;5.00;;
35056;SDS011;21241;51.828;19.574;2023-04-25T11:54:15;5.00;;;4.70;;
35056;SDS011;21241;51.828;19.574;2023-04-25T11:56:43;4.90;;;4.50;;
35056;SDS011;21241;51.828;19.574;2023-04-25T11:59:12;5.60;;;5.10;;
35056;SDS011;21241;51.828;19.574;2023-04-25T12:01:41;5.00;;;4.60;;
35056;SDS011;21241;51.828;19.574;2023-04-25T12:04:19;5.00;;;4.70;;
35056;SDS011;21241;51.828;19.574;2023-04-25T12:06:53;5.90;;;5.50;;
35056;SDS011;21241;51.828;19.574;2023-04-25T12:09:29;5.70;;;5.20;;
35056;SDS011;21241;51.828;19.574;2023-04-25T12:11:59;8.20;;;5.50;;
35056;SDS011;21241;51.828;19.574;2023-04-25T12:14:31;5.80;;;5.40;;
35056;SDS011;21241;51.828;19.574;2023-04-25T12:17:03;5.80;;;5.20;;
35056;SDS011;21241;51.828;19.574;2023-04-25T12:19:33;5.50;;;5.10;;
35056;SDS011;21241;51.828;19.574;2023-04-25T12:22:02;5.80;;;5.30;;
35056;SDS011;21241;51.828;19.574;2023-04-25T12:24:33;5.20;;;4.90;;
35056;SDS011;21241;51.828;19.574;2023-04-25T12:27:06;4.60;;;4.30;;
35056;SDS011;21241;51.828;19.574;2023-04-25T12:29:36;4.30;;;3.90;;
35056;SDS011;21241;51.828;19.574;2023-04-25T12:32:06;4.60;;;4.30;;
35056;SDS011;21241;51.828;19.574;2023-04-25T12:34:34;5.40;;;4.80;;
35056;SDS011;21241;51.828;19.574;2023-04-25T12:37:03;5.30;;;4.90;;
35056;SDS011;21241;51.828;19.574;2023-04-25T12:39:31;4.60;;;4.30;;
35056;SDS011;21241;51.828;19.574;2023-04-25T12:41:58;5.20;;;4.80;;
35056;SDS011;21241;51.828;19.574;2023-04-25T12:44:27;5.40;;;5.00;;
35056;SDS011;21241;51.828;19.574;2023-04-25T12:46:54;5.90;;;5.50;;
35056;SDS011;21241;51.828;19.574;2023-04-25T12:49:22;5.70;;;5.30;;
35056;SDS011;21241;51.828;19.574;2023-04-25T12:51:50;6.60;;;6.10;;
35056;SDS011;21241;51.828;19.574;2023-04-25T12:54:19;6.80;;;6.10;;
35056;SDS011;21241;51.828;19.574;2023-04-25T12:56:47;9.70;;;8.90;;
35056;SDS011;21241;51.828;19.574;2023-04-25T12:59:15;31.40;;;28.40;;
35056;SDS011;21241;51.828;19.574;2023-04-25T13:01:42;9.10;;;8.40;;
35056;SDS011;21241;51.828;19.574;2023-04-25T13:04:11;24.60;;;22.70;;
35056;SDS011;21241;51.828;19.574;2023-04-25T13:06:40;14.40;;;13.50;;
35056;SDS011;21241;51.828;19.574;2023-04-25T13:09:07;7.20;;;6.70;;
35056;SDS011;21241;51.828;19.574;2023-04-25T13:11:35;5.50;;;5.10;;
35056;SDS011;21241;51.828;19.574;2023-04-25T13:14:04;5.60;;;5.20;;
35056;SDS011;21241;51.828;19.574;2023-04-25T13:16:32;5.20;;;4.80;;
35056;SDS011;21241;51.828;19.574;2023-04-25T13:19:00;6.50;;;5.90;;
35056;SDS011;21241;51.828;19.574;2023-04-25T13:21:29;4.20;;;3.90;;
35056;SDS011;21241;51.828;19.574;2023-04-25T13:23:58;5.20;;;4.80;;
35056;SDS011;21241;51.828;19.574;2023-04-25T13:26:25;5.80;;;5.30;;
35056;SDS011;21241;51.828;19.574;2023-04-25T13:28:53;4.00;;;3.70;;
35056;SDS011;21241;51.828;19.574;2023-04-25T13:31:21;6.20;;;5.70;;
35056;SDS011;21241;51.828;19.574;2023-04-25T13:33:49;37.40;;;34.10;;
35056;SDS011;21241;51.828;19.574;2023-04-25T13:36:17;4.60;;;4.30;;
35056;SDS011;21241;51.828;19.574;2023-04-25T13:38:44;4.40;;;4.00;;
35056;SDS011;21241;51.828;19.574;2023-04-25T13:41:15;4.10;;;3.60;;
35056;SDS011;21241;51.828;19.574;2023-04-25T13:43:46;5.70;;;5.30;;
35056;SDS011;21241;51.828;19.574;2023-04-25T13:46:15;5.70;;;5.20;;
35056;SDS011;21241;51.828;19.574;2023-04-25T13:49:03;5.10;;;4.60;;
35056;SDS011;21241;51.828;19.574;2023-04-25T13:51:39;8.70;;;8.00;;
35056;SDS011;21241;51.828;19.574;2023-04-25T13:54:08;5.00;;;4.50;;
35056;SDS011;21241;51.828;19.574;2023-04-25T13:56:36;4.60;;;4.20;;
35056;SDS011;21241;51.828;19.574;2023-04-25T13:59:04;6.90;;;6.20;;
35056;SDS011;21241;51.828;19.574;2023-04-25T14:01:31;7.30;;;6.60;;
35056;SDS011;21241;51.828;19.574;2023-04-25T14:04:02;7.10;;;6.40;;
35056;SDS011;21241;51.828;19.574;2023-04-25T14:06:33;6.70;;;6.10;;
35056;SDS011;21241;51.828;19.574;2023-04-25T14:09:01;10.90;;;10.00;;
35056;SDS011;21241;51.828;19.574;2023-04-25T14:11:29;13.90;;;12.90;;
35056;SDS011;21241;51.828;19.574;2023-04-25T14:13:57;32.80;;;23.50;;
35056;SDS011;21241;51.828;19.574;2023-04-25T14:16:24;75.30;;;53.30;;
35056;SDS011;21241;51.828;19.574;2023-04-25T14:18:52;71.90;;;55.10;;
35056;SDS011;21241;51.828;19.574;2023-04-25T14:21:21;16.80;;;15.10;;
35056;SDS011;21241;51.828;19.574;2023-04-25T14:23:49;12.50;;;11.50;;
35056;SDS011;21241;51.828;19.574;2023-04-25T14:26:17;11.70;;;10.70;;
35056;SDS011;21241;51.828;19.574;2023-04-25T14:28:45;14.30;;;13.10;;
35056;SDS011;21241;51.828;19.574;2023-04-25T14:31:13;11.40;;;10.60;;
35056;SDS011;21241;51.828;19.574;2023-04-25T14:33:41;9.40;;;8.70;;
35056;SDS011;21241;51.828;19.574;2023-04-25T14:36:10;11.40;;;10.50;;
35056;SDS011;21241;51.828;19.574;2023-04-25T14:38:38;11.80;;;10.90;;
35056;SDS011;21241;51.828;19.574;2023-04-25T14:41:06;8.40;;;7.80;;
35056;SDS011;21241;51.828;19.574;2023-04-25T14:43:33;7.30;;;6.80;;
35056;SDS011;21241;51.828;19.574;2023-04-25T14:46:01;9.60;;;8.80;;
35056;SDS011;21241;51.828;19.574;2023-04-25T14:48:29;23.70;;;21.40;;
35056;SDS011;21241;51.828;19.574;2023-04-25T14:50:57;31.20;;;28.20;;
35056;SDS011;21241;51.828;19.574;2023-04-25T14:53:25;32.40;;;29.30;;
35056;SDS011;21241;51.828;19.574;2023-04-25T14:55:54;32.60;;;29.40;;
35056;SDS011;21241;51.828;19.574;2023-04-25T14:58:21;26.80;;;24.20;;
35056;SDS011;21241;51.828;19.574;2023-04-25T15:00:50;26.50;;;24.00;;